Check out our new PWSWeather beta!
PWSweather.com
Personal Weather Stations
Station Observations
IMAZOWIE6
WarszawaPL

WarszawaPL

Lat: 52.27957, Lon: 21.05489

Elevation: 100

Station Type: WS1080

http://stacjapogody.waw.pl/

High Low Average
Temperature 51.4°F10.8°C 40.6°F4.8°C 46.2°F7.9°C
Dew Point 26.6°F-3.0°C -168.6°F-111.4°C -43.1°F-41.7°C
Winds Calm Calm Calm Calm Calm NCalm N
Wind Gusts 0.6 mph1.0 kmh -- --
Humidity 44% 10% 33%
Pressure 29.80 in1009.1 mb 29.44 in997.0 mb -
Precipitation 0.00 in0.0 mm - -
Hour Temp Dew Point Humidity Winds Wind Gusts Pressure Precip Precip Rate Daily Precip Total
12:05 AM 51.4°F10.8°C 22.4°F-5.3°C 32% Calm Calm -- 29.44 in997.0 mb 0.00 in0.0 mm 0.00 in0.0 mm 0.00 in0.0 mm
12:20 AM 51.3°F10.7°C 22.9°F-5.1°C 33% Calm Calm -- 29.45 in997.3 mb 0.00 in0.0 mm 0.00 in0.0 mm 0.00 in0.0 mm
12:35 AM 51.3°F10.7°C 23.6°F-4.7°C 34% Calm Calm -- 29.45 in997.3 mb 0.00 in0.0 mm 0.00 in0.0 mm 0.00 in0.0 mm
12:50 AM 51.3°F10.7°C 24.3°F-4.3°C 35% Calm Calm 0.6 mph1.0 kmh 29.46 in997.6 mb 0.00 in0.0 mm 0.00 in0.0 mm 0.00 in0.0 mm
01:05 AM 51.1°F10.6°C 24.9°F-3.9°C 36% Calm Calm -- 29.46 in997.6 mb 0.00 in0.0 mm 0.00 in0.0 mm 0.00 in0.0 mm
01:20 AM 50.7°F10.4°C 25.8°F-3.4°C 38% Calm Calm -- 29.47 in998.0 mb 0.00 in0.0 mm 0.00 in0.0 mm 0.00 in0.0 mm
01:35 AM 50.0°F10.0°C 25.2°F-3.8°C 38% Calm Calm 0.6 mph1.0 kmh 29.46 in997.6 mb 0.00 in0.0 mm 0.00 in0.0 mm 0.00 in0.0 mm
01:50 AM 49.8°F9.9°C 25.0°F-3.9°C 38% Calm Calm -- 29.46 in997.6 mb 0.00 in0.0 mm 0.00 in0.0 mm 0.00 in0.0 mm
02:05 AM 49.6°F9.8°C 24.9°F-3.9°C 38% Calm Calm -- 29.46 in997.6 mb 0.00 in0.0 mm 0.00 in0.0 mm 0.00 in0.0 mm
02:20 AM 49.5°F9.7°C 24.7°F-4.1°C 38% Calm Calm -- 29.47 in998.0 mb 0.00 in0.0 mm 0.00 in0.0 mm 0.00 in0.0 mm
02:35 AM 49.3°F9.6°C 24.5°F-4.2°C 38% Calm Calm -- 29.47 in998.0 mb 0.00 in0.0 mm 0.00 in0.0 mm 0.00 in0.0 mm
02:50 AM 49.1°F9.5°C 24.4°F-4.2°C 38% Calm Calm -- 29.48 in998.3 mb 0.00 in0.0 mm 0.00 in0.0 mm 0.00 in0.0 mm
03:05 AM 49.1°F9.5°C 24.4°F-4.2°C 38% Calm Calm -- 29.48 in998.3 mb 0.00 in0.0 mm 0.00 in0.0 mm 0.00 in0.0 mm
03:20 AM 49.1°F9.5°C 24.4°F-4.2°C 38% Calm Calm -- 29.48 in998.3 mb 0.00 in0.0 mm 0.00 in0.0 mm 0.00 in0.0 mm
03:35 AM 48.9°F9.4°C 24.2°F-4.3°C 38% Calm Calm -- 29.48 in998.3 mb 0.00 in0.0 mm 0.00 in0.0 mm 0.00 in0.0 mm
03:50 AM 48.7°F9.3°C 24.7°F-4.1°C 39% Calm Calm -- 29.49 in998.6 mb 0.00 in0.0 mm 0.00 in0.0 mm 0.00 in0.0 mm
04:05 AM 48.7°F9.3°C 24.7°F-4.1°C 39% Calm Calm -- 29.49 in998.6 mb 0.00 in0.0 mm 0.00 in0.0 mm 0.00 in0.0 mm
04:20 AM 48.7°F9.3°C 24.7°F-4.1°C 39% Calm Calm -- 29.50 in999.0 mb 0.00 in0.0 mm 0.00 in0.0 mm 0.00 in0.0 mm
04:35 AM 48.6°F9.2°C 25.1°F-3.8°C 40% Calm Calm -- 29.50 in999.0 mb 0.00 in0.0 mm 0.00 in0.0 mm 0.00 in0.0 mm
04:50 AM 48.4°F9.1°C 25.0°F-3.9°C 40% Calm Calm -- 29.51 in999.3 mb 0.00 in0.0 mm 0.00 in0.0 mm 0.00 in0.0 mm
05:05 AM 48.6°F9.2°C 25.1°F-3.8°C 40% Calm Calm -- 29.51 in999.3 mb 0.00 in0.0 mm 0.00 in0.0 mm 0.00 in0.0 mm
05:20 AM 48.2°F9.0°C 25.4°F-3.7°C 41% Calm Calm -- 29.52 in999.7 mb 0.00 in0.0 mm 0.00 in0.0 mm 0.00 in0.0 mm
05:35 AM 48.2°F9.0°C 26.0°F-3.3°C 42% Calm Calm -- 29.52 in999.7 mb 0.00 in0.0 mm 0.00 in0.0 mm 0.00 in0.0 mm
05:50 AM 48.0°F8.9°C 26.4°F-3.1°C 43% Calm Calm -- 29.52 in999.7 mb 0.00 in0.0 mm 0.00 in0.0 mm 0.00 in0.0 mm
06:05 AM 47.7°F8.7°C 26.6°F-3.0°C 44% Calm Calm -- 29.52 in999.7 mb 0.00 in0.0 mm 0.00 in0.0 mm 0.00 in0.0 mm
06:20 AM 45.7°F7.6°C 24.3°F-4.3°C 43% Calm Calm -- 29.54 in1000.3 mb 0.01 in0.3 mm 0.05 in1.3 mm 0.01 in0.3 mm
06:35 AM 43.7°F6.5°C 22.5°F-5.3°C 43% Calm Calm -- 29.55 in1000.7 mb 0.01 in0.3 mm 0.00 in0.0 mm 0.01 in0.3 mm
06:50 AM 43.0°F6.1°C 21.2°F-6.0°C 42% Calm Calm -- 29.56 in1001.0 mb 0.02 in0.5 mm 0.05 in1.3 mm 0.02 in0.5 mm
07:05 AM 42.6°F5.9°C 20.9°F-6.2°C 42% Calm Calm 0.6 mph1.0 kmh 29.56 in1001.0 mb 0.02 in0.5 mm 0.00 in0.0 mm 0.02 in0.5 mm
07:20 AM 42.3°F5.7°C 21.2°F-6.0°C 43% Calm Calm -- 29.57 in1001.4 mb 0.01 in0.3 mm 0.00 in0.0 mm 0.02 in0.5 mm
07:35 AM 42.3°F5.7°C 21.2°F-6.0°C 43% Calm Calm -- 29.58 in1001.7 mb 0.04 in1.0 mm 0.10 in2.5 mm 0.05 in1.3 mm
07:50 AM 42.3°F5.7°C 21.7°F-5.7°C 44% Calm Calm -- 29.59 in1002.0 mb 0.05 in1.3 mm 0.05 in1.3 mm 0.06 in1.5 mm
08:05 AM 42.1°F5.6°C 21.5°F-5.8°C 44% Calm Calm -- 29.59 in1002.0 mb 0.05 in1.3 mm 0.00 in0.0 mm 0.06 in1.5 mm
08:20 AM 42.1°F5.6°C 21.5°F-5.8°C 44% Calm Calm -- 29.60 in1002.4 mb 0.00 in0.0 mm 0.00 in0.0 mm 0.06 in1.5 mm
08:35 AM 42.6°F5.9°C 22.0°F-5.6°C 44% Calm Calm -- 29.61 in1002.7 mb 0.00 in0.0 mm 0.00 in0.0 mm 0.06 in1.5 mm
08:50 AM 43.0°F6.1°C 21.8°F-5.7°C 43% Calm Calm -- 29.61 in1002.7 mb 0.00 in0.0 mm 0.00 in0.0 mm 0.06 in1.5 mm
09:05 AM 43.9°F6.6°C 22.6°F-5.2°C 43% Calm Calm -- 29.61 in1002.7 mb 0.00 in0.0 mm 0.00 in0.0 mm 0.06 in1.5 mm
09:20 AM 43.3°F6.3°C 21.0°F-6.1°C 41% Calm Calm -- 29.62 in1003.0 mb 0.00 in0.0 mm 0.00 in0.0 mm 0.06 in1.5 mm
09:35 AM 43.7°F6.5°C 20.7°F-6.3°C 40% Calm Calm -- 29.62 in1003.0 mb 0.01 in0.3 mm 0.05 in1.3 mm 0.07 in1.8 mm
09:50 AM 43.9°F6.6°C 20.3°F-6.5°C 39% Calm Calm -- 29.62 in1003.0 mb 0.01 in0.3 mm 0.00 in0.0 mm 0.07 in1.8 mm
10:05 AM 44.1°F6.7°C 20.5°F-6.4°C 39% Calm Calm -- 29.62 in1003.0 mb 0.01 in0.3 mm 0.00 in0.0 mm 0.07 in1.8 mm
10:20 AM 45.3°F7.4°C 21.6°F-5.8°C 39% Calm Calm 0.6 mph1.0 kmh 29.62 in1003.0 mb 0.00 in0.0 mm 0.00 in0.0 mm 0.07 in1.8 mm
10:35 AM 45.1°F7.3°C 19.6°F-6.9°C 36% Calm Calm -- 29.63 in1003.4 mb 0.00 in0.0 mm 0.00 in0.0 mm 0.07 in1.8 mm
10:50 AM 45.9°F7.7°C 19.5°F-6.9°C 35% Calm Calm -- 29.63 in1003.4 mb 0.00 in0.0 mm 0.00 in0.0 mm 0.07 in1.8 mm
11:05 AM 46.2°F7.9°C 18.5°F-7.5°C 33% Calm Calm -- 29.63 in1003.4 mb 0.00 in0.0 mm 0.00 in0.0 mm 0.07 in1.8 mm
11:20 AM 45.9°F7.7°C 15.9°F-8.9°C 30% Calm Calm -- 29.64 in1003.7 mb 0.00 in0.0 mm 0.00 in0.0 mm 0.07 in1.8 mm
11:35 AM 46.4°F8.0°C 17.2°F-8.2°C 31% Calm Calm -- 29.64 in1003.7 mb 0.00 in0.0 mm 0.00 in0.0 mm 0.07 in1.8 mm
11:50 AM 46.6°F8.1°C 15.8°F-9.0°C 29% Calm Calm -- 29.64 in1003.7 mb 0.00 in0.0 mm 0.00 in0.0 mm 0.07 in1.8 mm
12:05 PM 47.5°F8.6°C 14.9°F-9.5°C 27% Calm Calm 0.6 mph1.0 kmh 29.64 in1003.7 mb 0.00 in0.0 mm 0.00 in0.0 mm 0.07 in1.8 mm
12:20 PM 47.8°F8.8°C 9.6°F-12.4°C 21% Calm Calm -- 29.64 in1003.7 mb 0.00 in0.0 mm 0.00 in0.0 mm 0.07 in1.8 mm
12:35 PM 47.7°F8.7°C 2.1°F-16.6°C 15% Calm Calm -- 29.64 in1003.7 mb 0.00 in0.0 mm 0.00 in0.0 mm 0.07 in1.8 mm
12:50 PM 48.2°F9.0°C 1.1°F-17.2°C 14% Calm Calm -- 29.65 in1004.1 mb 0.00 in0.0 mm 0.00 in0.0 mm 0.07 in1.8 mm
01:05 PM 48.6°F9.2°C 1.4°F-17.0°C 14% Calm Calm -- 29.65 in1004.1 mb 0.00 in0.0 mm 0.00 in0.0 mm 0.07 in1.8 mm
01:20 PM 48.6°F9.2°C -3.6°F-19.8°C 11% Calm Calm -- 29.65 in1004.1 mb 0.00 in0.0 mm 0.00 in0.0 mm 0.07 in1.8 mm
01:35 PM 48.7°F9.3°C -5.4°F-20.8°C 10% Calm Calm -- 29.65 in1004.1 mb 0.00 in0.0 mm 0.00 in0.0 mm 0.07 in1.8 mm
01:50 PM 48.6°F9.2°C -167.9°F-111.1°C - Calm Calm -- 29.66 in1004.4 mb 0.00 in0.0 mm 0.00 in0.0 mm 0.07 in1.8 mm
02:05 PM 49.1°F9.5°C -167.9°F-111.1°C - Calm Calm -- 29.66 in1004.4 mb 0.00 in0.0 mm 0.00 in0.0 mm 0.07 in1.8 mm
02:20 PM 49.1°F9.5°C -167.9°F-111.1°C - Calm Calm -- 29.66 in1004.4 mb 0.00 in0.0 mm 0.00 in0.0 mm 0.07 in1.8 mm
02:35 PM 48.9°F9.4°C -167.9°F-111.1°C - Calm Calm -- 29.67 in1004.7 mb 0.00 in0.0 mm 0.00 in0.0 mm 0.07 in1.8 mm
02:50 PM 48.7°F9.3°C -167.9°F-111.1°C - Calm Calm -- 29.68 in1005.1 mb 0.00 in0.0 mm 0.00 in0.0 mm 0.07 in1.8 mm
03:05 PM 48.7°F9.3°C -167.9°F-111.1°C - Calm Calm -- 29.68 in1005.1 mb 0.00 in0.0 mm 0.00 in0.0 mm 0.07 in1.8 mm
03:20 PM 48.7°F9.3°C -167.9°F-111.1°C - Calm Calm 0.6 mph1.0 kmh 29.68 in1005.1 mb 0.00 in0.0 mm 0.00 in0.0 mm 0.07 in1.8 mm
03:35 PM 48.7°F9.3°C -167.9°F-111.1°C - Calm Calm -- 29.68 in1005.1 mb 0.00 in0.0 mm 0.00 in0.0 mm 0.07 in1.8 mm
03:50 PM 48.4°F9.1°C -168.0°F-111.1°C - Calm Calm -- 29.68 in1005.1 mb 0.00 in0.0 mm 0.00 in0.0 mm 0.07 in1.8 mm
04:05 PM 48.2°F9.0°C -168.0°F-111.1°C - Calm Calm -- 29.69 in1005.4 mb 0.00 in0.0 mm 0.00 in0.0 mm 0.07 in1.8 mm
04:20 PM 47.8°F8.8°C -168.0°F-111.1°C - Calm Calm -- 29.69 in1005.4 mb 0.00 in0.0 mm 0.00 in0.0 mm 0.07 in1.8 mm
04:35 PM 47.8°F8.8°C -168.0°F-111.1°C - Calm Calm -- 29.70 in1005.8 mb 0.00 in0.0 mm 0.00 in0.0 mm 0.07 in1.8 mm
04:50 PM 47.7°F8.7°C -168.0°F-111.1°C - Calm Calm -- 29.70 in1005.8 mb 0.00 in0.0 mm 0.00 in0.0 mm 0.07 in1.8 mm
05:05 PM 47.5°F8.6°C -168.1°F-111.2°C - Calm Calm -- 29.70 in1005.8 mb 0.00 in0.0 mm 0.00 in0.0 mm 0.07 in1.8 mm
05:20 PM 47.1°F8.4°C -168.1°F-111.2°C - Calm Calm -- 29.70 in1005.8 mb 0.00 in0.0 mm 0.00 in0.0 mm 0.07 in1.8 mm
05:35 PM 46.9°F8.3°C -168.1°F-111.2°C - Calm Calm -- 29.71 in1006.1 mb 0.00 in0.0 mm 0.00 in0.0 mm 0.07 in1.8 mm
05:50 PM 46.6°F8.1°C -168.1°F-111.2°C - Calm Calm -- 29.71 in1006.1 mb 0.00 in0.0 mm 0.00 in0.0 mm 0.07 in1.8 mm
06:05 PM 46.4°F8.0°C -168.2°F-111.2°C - Calm Calm -- 29.72 in1006.4 mb 0.00 in0.0 mm 0.00 in0.0 mm 0.07 in1.8 mm
06:20 PM 46.0°F7.8°C -168.2°F-111.2°C - Calm Calm -- 29.72 in1006.4 mb 0.00 in0.0 mm 0.00 in0.0 mm 0.07 in1.8 mm
06:35 PM 45.7°F7.6°C -168.2°F-111.2°C - Calm Calm -- 29.73 in1006.8 mb 0.00 in0.0 mm 0.00 in0.0 mm 0.07 in1.8 mm
06:50 PM 45.5°F7.5°C -168.3°F-111.3°C - Calm Calm -- 29.73 in1006.8 mb 0.00 in0.0 mm 0.00 in0.0 mm 0.07 in1.8 mm
07:05 PM 45.3°F7.4°C -168.3°F-111.3°C - Calm Calm -- 29.73 in1006.8 mb 0.00 in0.0 mm 0.00 in0.0 mm 0.07 in1.8 mm
07:20 PM 44.8°F7.1°C -168.3°F-111.3°C - Calm Calm -- 29.74 in1007.1 mb 0.00 in0.0 mm 0.00 in0.0 mm 0.07 in1.8 mm
07:35 PM 44.6°F7.0°C -168.3°F-111.3°C - Calm Calm -- 29.74 in1007.1 mb 0.00 in0.0 mm 0.00 in0.0 mm 0.07 in1.8 mm
07:50 PM 44.4°F6.9°C -168.4°F-111.3°C - Calm Calm -- 29.75 in1007.5 mb 0.00 in0.0 mm 0.00 in0.0 mm 0.07 in1.8 mm
08:05 PM 43.5°F6.4°C -168.4°F-111.3°C - Calm Calm -- 29.74 in1007.1 mb 0.00 in0.0 mm 0.00 in0.0 mm 0.07 in1.8 mm
08:20 PM 43.0°F6.1°C -168.5°F-111.4°C - Calm Calm -- 29.75 in1007.5 mb 0.00 in0.0 mm 0.00 in0.0 mm 0.07 in1.8 mm
08:35 PM 42.8°F6.0°C -168.5°F-111.4°C - Calm Calm -- 29.75 in1007.5 mb 0.00 in0.0 mm 0.00 in0.0 mm 0.07 in1.8 mm
08:50 PM 42.4°F5.8°C -168.6°F-111.4°C - Calm Calm -- 29.75 in1007.5 mb 0.00 in0.0 mm 0.00 in0.0 mm 0.07 in1.8 mm
09:05 PM 42.3°F5.7°C -168.6°F-111.4°C - Calm Calm -- 29.75 in1007.5 mb 0.00 in0.0 mm 0.00 in0.0 mm 0.07 in1.8 mm
09:20 PM 42.3°F5.7°C -168.6°F-111.4°C - Calm Calm -- 29.76 in1007.8 mb 0.00 in0.0 mm 0.00 in0.0 mm 0.07 in1.8 mm
09:35 PM 42.4°F5.8°C -10.3°F-23.5°C 10% Calm Calm -- 29.77 in1008.1 mb 0.00 in0.0 mm 0.00 in0.0 mm 0.07 in1.8 mm
09:50 PM 42.1°F5.6°C -8.7°F-22.6°C 11% Calm Calm -- 29.77 in1008.1 mb 0.00 in0.0 mm 0.00 in0.0 mm 0.07 in1.8 mm
10:05 PM 41.7°F5.4°C -9.0°F-22.8°C 11% Calm Calm -- 29.77 in1008.1 mb 0.00 in0.0 mm 0.00 in0.0 mm 0.07 in1.8 mm
10:20 PM 41.5°F5.3°C -5.8°F-21.0°C 13% Calm Calm -- 29.77 in1008.1 mb 0.00 in0.0 mm 0.00 in0.0 mm 0.07 in1.8 mm
10:35 PM 41.0°F5.0°C -4.7°F-20.4°C 14% Calm Calm -- 29.78 in1008.5 mb 0.00 in0.0 mm 0.00 in0.0 mm 0.07 in1.8 mm
10:50 PM 41.2°F5.1°C -1.8°F-18.8°C 16% Calm Calm -- 29.78 in1008.5 mb 0.00 in0.0 mm 0.00 in0.0 mm 0.07 in1.8 mm
11:05 PM 41.2°F5.1°C -0.5°F-18.1°C 17% Calm Calm -- 29.80 in1009.1 mb 0.00 in0.0 mm 0.00 in0.0 mm 0.07 in1.8 mm
11:20 PM 41.0°F5.0°C 0.5°F-17.5°C 18% Calm Calm -- 29.79 in1008.8 mb 0.00 in0.0 mm 0.00 in0.0 mm 0.07 in1.8 mm
11:35 PM 40.8°F4.9°C 0.4°F-17.6°C 18% Calm Calm -- 29.79 in1008.8 mb 0.00 in0.0 mm 0.00 in0.0 mm 0.07 in1.8 mm
11:50 PM 40.6°F4.8°C 2.5°F-16.4°C 20% Calm Calm -- 29.79 in1008.8 mb 0.00 in0.0 mm 0.00 in0.0 mm 0.07 in1.8 mm